createdAt,value
2019-06-10T00:00:41.834Z,56.30
2019-06-10T00:03:11.802Z,56.40
2019-06-10T00:05:41.364Z,56.80
2019-06-10T00:08:12.216Z,56.90
2019-06-10T00:10:42.190Z,57.40
2019-06-10T00:13:11.950Z,57.60
2019-06-10T00:15:41.286Z,57.60
2019-06-10T00:18:30.878Z,57.70
2019-06-10T00:20:41.047Z,57.80
2019-06-10T00:23:12.005Z,57.90
2019-06-10T00:25:41.471Z,57.90
2019-06-10T00:28:12.169Z,58.10
2019-06-10T00:30:41.613Z,58.20
2019-06-10T00:33:12.542Z,58.40
2019-06-10T00:35:41.341Z,58.70
2019-06-10T00:38:13.948Z,58.80
2019-06-10T00:40:41.507Z,59.00
2019-06-10T00:43:13.256Z,59.00
2019-06-10T00:45:41.268Z,59.10
2019-06-10T00:48:21.449Z,59.20
2019-06-10T00:50:41.427Z,59.20
2019-06-10T00:53:14.187Z,59.20
2019-06-10T00:55:42.377Z,59.20
2019-06-10T00:58:13.943Z,59.30
2019-06-10T01:00:41.888Z,59.30
2019-06-10T01:03:13.579Z,59.70
2019-06-10T01:05:42.277Z,59.90
2019-06-10T01:08:13.931Z,60.00
2019-06-10T01:10:43.949Z,59.70
2019-06-10T01:13:14.030Z,60.00
2019-06-10T01:15:43.172Z,60.00
2019-06-10T01:18:30.618Z,60.10
2019-06-10T01:20:42.535Z,59.90
2019-06-10T01:23:13.541Z,60.50
2019-06-10T01:25:42.342Z,60.30
2019-06-10T01:28:14.569Z,60.30
2019-06-10T01:30:41.648Z,60.60
2019-06-10T01:33:11.375Z,61.10
2019-06-10T01:35:41.479Z,61.10
2019-06-10T01:38:12.926Z,60.80
2019-06-10T01:40:42.203Z,61.30
2019-06-10T01:43:13.352Z,62.00
2019-06-10T01:45:41.935Z,61.80
2019-06-10T01:48:13.123Z,61.90
2019-06-10T01:50:41.199Z,62.00
2019-06-10T01:53:13.599Z,62.40
2019-06-10T01:55:41.851Z,63.00
2019-06-10T01:58:13.230Z,62.90
2019-06-10T02:00:51.465Z,63.20
2019-06-10T02:03:23.682Z,63.30
2019-06-10T02:05:51.703Z,63.70
2019-06-10T02:08:22.194Z,64.10
2019-06-10T02:10:51.049Z,64.10
2019-06-10T02:13:32.916Z,64.40
2019-06-10T02:16:05.604Z,64.00
2019-06-10T02:18:34.302Z,64.10
2019-06-10T02:21:03.009Z,64.20
2019-06-10T02:23:31.817Z,64.20
2019-06-10T02:26:01.440Z,64.40
2019-06-10T02:28:31.854Z,64.30
2019-06-10T02:31:03.067Z,64.20
2019-06-10T02:33:36.146Z,64.00
2019-06-10T02:36:04.267Z,64.20
2019-06-10T02:38:35.665Z,64.50
2019-06-10T02:41:04.372Z,64.70
2019-06-10T02:43:37.690Z,64.60
2019-06-10T02:46:04.582Z,64.90
2019-06-10T02:48:34.945Z,65.00
2019-06-10T02:51:07.573Z,65.20
2019-06-10T02:53:37.336Z,65.90
2019-06-10T02:56:07.415Z,65.90
2019-06-10T02:58:38.743Z,66.00
2019-06-10T03:01:07.249Z,66.40
2019-06-10T03:03:43.898Z,66.10
2019-06-10T03:06:08.696Z,66.20
2019-06-10T03:08:37.044Z,65.60
2019-06-10T03:11:05.879Z,64.70
2019-06-10T03:13:34.411Z,64.10
2019-06-10T03:16:08.230Z,64.20
2019-06-10T03:18:36.945Z,63.80
2019-06-10T03:21:05.603Z,62.90
2019-06-10T03:23:34.258Z,62.20
2019-06-10T03:26:04.040Z,61.40
2019-06-10T03:28:33.322Z,61.30
2019-06-10T03:31:05.603Z,61.50
2019-06-10T03:33:40.841Z,61.40
2019-06-10T03:36:03.405Z,61.20
2019-06-10T03:38:32.619Z,61.30
2019-06-10T03:41:03.225Z,61.40
2019-06-10T03:43:32.994Z,60.90
2019-06-10T03:46:03.076Z,60.60
2019-06-10T03:48:32.865Z,60.40
2019-06-10T03:51:03.412Z,60.50
2019-06-10T03:53:33.631Z,60.20
2019-06-10T03:56:02.591Z,59.90
2019-06-10T03:58:32.789Z,59.50
2019-06-10T04:01:03.096Z,59.10
2019-06-10T04:03:33.865Z,59.60
2019-06-10T04:06:02.722Z,59.10
2019-06-10T04:08:32.937Z,58.70
2019-06-10T04:11:02.868Z,57.40
2019-06-10T04:13:33.848Z,58.10
2019-06-10T04:16:02.534Z,57.70
2019-06-10T04:18:32.742Z,57.80
2019-06-10T04:21:02.296Z,57.00
2019-06-10T04:23:33.515Z,56.00
2019-06-10T04:26:02.335Z,55.80
2019-06-10T04:28:33.513Z,54.90
2019-06-10T04:31:02.595Z,54.00
2019-06-10T04:33:32.819Z,53.40
2019-06-10T04:36:02.812Z,53.40
2019-06-10T04:38:32.698Z,53.60
2019-06-10T04:41:03.277Z,51.20
2019-06-10T04:43:32.763Z,51.80
2019-06-10T04:46:02.317Z,52.50
2019-06-10T04:48:32.746Z,52.30
2019-06-10T04:51:02.679Z,51.70
2019-06-10T04:53:32.867Z,51.50
2019-06-10T04:56:03.006Z,50.70
2019-06-10T04:58:33.333Z,50.90
2019-06-10T05:01:03.185Z,51.00
2019-06-10T05:03:32.952Z,50.80
2019-06-10T05:06:03.339Z,50.40
2019-06-10T05:08:33.591Z,49.70
2019-06-10T05:11:03.751Z,48.90
2019-06-10T05:13:33.678Z,47.60
2019-06-10T05:16:03.604Z,47.10
2019-06-10T05:18:33.270Z,47.40
2019-06-10T05:21:02.792Z,46.60
2019-06-10T05:23:32.939Z,46.50
2019-06-10T05:26:02.811Z,47.10
2019-06-10T05:28:33.877Z,47.50
2019-06-10T05:31:03.084Z,46.70
2019-06-10T05:33:33.446Z,47.20
2019-06-10T05:36:02.718Z,47.40
2019-06-10T05:38:35.058Z,46.80
2019-06-10T05:41:02.991Z,47.20
2019-06-10T05:43:34.304Z,46.50
2019-06-10T05:46:03.098Z,45.00
2019-06-10T05:48:34.877Z,45.40
2019-06-10T05:51:05.772Z,45.60
2019-06-10T05:53:35.475Z,45.90
2019-06-10T05:56:04.624Z,45.90
2019-06-10T05:58:35.854Z,45.20
2019-06-10T06:01:04.445Z,44.70
2019-06-10T06:03:36.546Z,44.20
2019-06-10T06:06:03.556Z,44.30
2019-06-10T06:08:33.969Z,44.30
2019-06-10T06:11:03.966Z,43.90
2019-06-10T06:13:35.474Z,44.20
2019-06-10T06:16:03.477Z,44.20
2019-06-10T06:18:34.656Z,44.30
2019-06-10T06:21:19.945Z,43.60
2019-06-10T06:23:35.182Z,44.00
2019-06-10T06:26:04.105Z,44.80
2019-06-10T06:28:34.657Z,44.50
2019-06-10T06:31:03.731Z,44.60
2019-06-10T06:33:35.838Z,44.50
2019-06-10T06:36:03.514Z,44.50
2019-06-10T06:38:35.148Z,44.40
2019-06-10T06:41:03.333Z,44.30
2019-06-10T06:43:37.143Z,44.10
2019-06-10T06:46:02.786Z,44.10
2019-06-10T06:48:35.611Z,43.80
2019-06-10T06:51:08.100Z,44.00
2019-06-10T06:53:42.845Z,43.60
2019-06-10T06:56:03.667Z,43.40
2019-06-10T06:58:35.224Z,43.50
2019-06-10T07:01:10.300Z,43.20
2019-06-10T07:03:35.230Z,43.50
2019-06-10T07:06:03.967Z,44.00
2019-06-10T07:08:36.175Z,43.00
2019-06-10T07:11:04.375Z,43.40
2019-06-10T07:13:37.330Z,43.10
2019-06-10T07:16:07.861Z,43.50
2019-06-10T07:18:41.637Z,43.60
2019-06-10T07:21:06.781Z,43.90
2019-06-10T07:23:38.013Z,44.00
2019-06-10T07:26:05.953Z,43.90
2019-06-10T07:28:37.437Z,44.10
2019-06-10T07:31:19.953Z,43.50
2019-06-10T07:33:38.979Z,42.90
2019-06-10T07:36:06.654Z,43.10
2019-06-10T07:38:37.970Z,42.70
2019-06-10T07:41:05.715Z,41.80
2019-06-10T07:43:38.278Z,41.80
2019-06-10T07:46:05.991Z,42.20
2019-06-10T07:48:36.811Z,41.80
2019-06-10T07:51:05.377Z,41.50
2019-06-10T07:53:36.507Z,41.40
2019-06-10T07:56:12.877Z,42.30
2019-06-10T07:58:47.650Z,42.20
2019-06-10T08:01:16.531Z,42.60
2019-06-10T08:03:46.688Z,42.20
2019-06-10T08:06:15.307Z,42.10
2019-06-10T08:08:45.426Z,42.70
2019-06-10T08:11:14.278Z,42.90
2019-06-10T08:13:45.870Z,42.50
2019-06-10T08:16:16.675Z,41.80
2019-06-10T08:19:12.337Z,42.30
2019-06-10T08:21:15.846Z,42.30
2019-06-10T08:23:46.965Z,42.00
2019-06-10T08:26:14.898Z,41.60
2019-06-10T08:28:46.429Z,42.10
2019-06-10T08:31:13.900Z,42.10
2019-06-10T08:33:45.671Z,41.90
2019-06-10T08:36:13.628Z,42.00
2019-06-10T08:38:45.071Z,41.30
2019-06-10T08:41:12.741Z,41.70
2019-06-10T08:43:45.230Z,40.70
2019-06-10T08:46:13.133Z,38.40
2019-06-10T08:48:44.423Z,38.60
2019-06-10T08:51:14.119Z,37.90
2019-06-10T08:53:46.592Z,38.30
2019-06-10T08:56:14.648Z,38.40
2019-06-10T08:58:46.353Z,39.10
2019-06-10T09:01:13.704Z,39.60
2019-06-10T09:03:45.481Z,39.70
2019-06-10T09:06:13.245Z,39.80
2019-06-10T09:08:45.405Z,38.70
2019-06-10T09:11:12.915Z,39.40
2019-06-10T09:13:45.296Z,38.10
2019-06-10T09:16:19.091Z,37.80
2019-06-10T09:18:47.441Z,36.90
2019-06-10T09:21:17.147Z,36.80
2019-06-10T09:23:50.351Z,34.60
2019-06-10T09:26:16.208Z,31.50
2019-06-10T09:28:48.972Z,29.60
2019-06-10T09:31:15.278Z,28.70
2019-06-10T09:33:49.069Z,27.00
2019-06-10T09:36:14.277Z,26.10
2019-06-10T09:38:47.284Z,25.20
2019-06-10T09:41:14.326Z,25.50
2019-06-10T09:43:48.944Z,25.30
2019-06-10T09:46:16.119Z,25.30
2019-06-10T09:48:49.625Z,24.80
2019-06-10T09:51:15.458Z,24.60
2019-06-10T09:53:54.598Z,24.20
2019-06-10T09:56:15.740Z,23.00
2019-06-10T09:58:48.085Z,22.30
2019-06-10T10:01:16.400Z,21.30
2019-06-10T10:03:49.290Z,20.70
2019-06-10T10:06:16.163Z,20.00
2019-06-10T10:08:49.289Z,20.00
2019-06-10T10:11:15.240Z,19.90
2019-06-10T10:13:47.640Z,19.30
2019-06-10T10:16:15.765Z,19.00
2019-06-10T10:18:48.596Z,18.00
2019-06-10T10:21:15.259Z,17.90
2019-06-10T10:23:54.279Z,18.20
2019-06-10T10:26:14.249Z,18.20
2019-06-10T10:28:44.591Z,18.20
2019-06-10T10:31:13.299Z,18.50
2019-06-10T10:33:42.584Z,18.10
2019-06-10T10:36:14.070Z,18.80
2019-06-10T10:38:42.699Z,18.10
2019-06-10T10:41:13.256Z,18.10
2019-06-10T10:43:44.829Z,18.50
2019-06-10T10:46:13.939Z,18.70
2019-06-10T10:48:42.972Z,18.90
2019-06-10T10:51:13.052Z,18.80
2019-06-10T10:53:46.805Z,17.60
2019-06-10T10:56:12.891Z,17.30
2019-06-10T10:58:43.621Z,17.00
2019-06-10T11:01:15.033Z,17.10
2019-06-10T11:03:45.317Z,17.40
2019-06-10T11:06:13.224Z,17.50
2019-06-10T11:08:44.738Z,17.10
2019-06-10T11:11:13.570Z,17.40
2019-06-10T11:13:45.337Z,16.80
2019-06-10T11:16:14.605Z,16.60
2019-06-10T11:18:43.514Z,16.00
2019-06-10T11:21:13.313Z,15.60
2019-06-10T11:23:43.702Z,15.60
2019-06-10T11:26:13.229Z,16.30
2019-06-10T11:28:43.104Z,16.60
2019-06-10T11:31:13.877Z,16.10
2019-06-10T11:33:43.444Z,16.10
2019-06-10T11:36:13.464Z,16.10
2019-06-10T11:38:42.460Z,16.00
2019-06-10T11:41:13.409Z,16.20
2019-06-10T11:43:42.921Z,17.00
2019-06-10T11:46:13.762Z,16.80
2019-06-10T11:48:43.463Z,16.30
2019-06-10T11:51:12.959Z,16.40
2019-06-10T11:53:43.979Z,16.40
2019-06-10T11:56:13.152Z,15.90
2019-06-10T11:58:42.777Z,15.30
2019-06-10T12:01:13.155Z,16.00
2019-06-10T12:03:43.153Z,16.10
2019-06-10T12:06:13.673Z,16.60
2019-06-10T12:08:43.716Z,17.60
2019-06-10T12:11:13.008Z,19.00
2019-06-10T12:13:42.776Z,19.10
2019-06-10T12:17:11.245Z,18.30
2019-06-10T12:18:42.602Z,17.90
2019-06-10T12:21:13.250Z,17.20
2019-06-10T12:23:43.500Z,16.60
2019-06-10T12:26:12.099Z,16.90
2019-06-10T12:28:43.242Z,16.30
2019-06-10T12:31:13.425Z,16.10
2019-06-10T12:33:42.247Z,16.10
2019-06-10T12:36:12.770Z,16.00
2019-06-10T12:38:43.353Z,15.70
2019-06-10T12:41:14.058Z,15.30
2019-06-10T12:43:43.227Z,15.50
2019-06-10T12:46:12.949Z,15.90
2019-06-10T12:48:44.651Z,16.30
2019-06-10T12:51:13.841Z,16.20
2019-06-10T12:53:43.444Z,16.10
2019-06-10T12:56:14.746Z,15.80
2019-06-10T12:58:43.240Z,15.80
2019-06-10T13:01:12.183Z,15.30
2019-06-10T13:03:43.625Z,15.00
2019-06-10T13:06:13.045Z,14.30
2019-06-10T13:08:43.521Z,13.70
2019-06-10T13:11:14.796Z,13.70
2019-06-10T13:13:44.005Z,14.10
2019-06-10T13:16:14.104Z,14.30
2019-06-10T13:18:43.147Z,15.30
2019-06-10T13:21:17.225Z,16.50
2019-06-10T13:23:43.105Z,17.50
2019-06-10T13:26:15.968Z,18.30
2019-06-10T13:28:44.097Z,18.40
2019-06-10T13:31:14.031Z,18.60
2019-06-10T13:33:43.115Z,18.60
2019-06-10T13:36:12.556Z,18.60
2019-06-10T13:38:42.840Z,19.40
2019-06-10T13:41:11.455Z,19.70
2019-06-10T13:43:40.072Z,19.60
2019-06-10T13:46:10.689Z,20.20
2019-06-10T13:48:39.092Z,20.40
2019-06-10T13:51:10.956Z,20.70
2019-06-10T13:53:38.055Z,21.90
2019-06-10T13:56:29.547Z,21.50
2019-06-10T13:58:37.113Z,21.90
2019-06-10T14:01:10.107Z,21.70
2019-06-10T14:03:36.054Z,21.50
2019-06-10T14:06:21.002Z,20.60
2019-06-10T14:08:35.698Z,20.10
2019-06-10T14:11:07.518Z,19.20
2019-06-10T14:13:34.640Z,18.60
2019-06-10T14:16:03.542Z,19.20
2019-06-10T14:18:33.464Z,20.40
2019-06-10T14:21:06.194Z,21.40
2019-06-10T14:23:33.218Z,22.10
2019-06-10T14:26:05.019Z,22.90
2019-06-10T14:28:40.677Z,23.00
2019-06-10T14:31:24.190Z,23.30
2019-06-10T14:33:34.278Z,24.10
2019-06-10T14:36:04.060Z,23.60
2019-06-10T14:38:33.238Z,24.00
2019-06-10T14:41:03.442Z,24.60
2019-06-10T14:43:33.218Z,24.70
2019-06-10T14:46:02.084Z,25.20
2019-06-10T14:48:33.413Z,24.80
2019-06-10T14:51:03.424Z,25.20
2019-06-10T14:53:33.830Z,25.10
2019-06-10T14:56:03.694Z,25.10
2019-06-10T14:58:46.387Z,25.50
2019-06-10T15:01:04.766Z,26.00
2019-06-10T15:03:32.927Z,26.40
2019-06-10T15:06:03.353Z,26.50
2019-06-10T15:08:32.366Z,26.80
2019-06-10T15:11:01.120Z,27.10
2019-06-10T15:13:32.568Z,27.20
2019-06-10T15:16:04.074Z,27.20
2019-06-10T15:18:32.803Z,27.60
2019-06-10T15:21:02.678Z,27.70
2019-06-10T15:23:32.428Z,27.70
2019-06-10T15:26:02.916Z,27.50
2019-06-10T15:28:31.723Z,27.40
2019-06-10T15:31:02.788Z,27.50
2019-06-10T15:33:32.646Z,27.90
2019-06-10T15:36:02.298Z,27.70
2019-06-10T15:38:32.802Z,28.10
2019-06-10T15:41:02.713Z,28.10
2019-06-10T15:43:33.126Z,28.30
2019-06-10T15:46:03.419Z,28.30
2019-06-10T15:48:33.003Z,28.60
2019-06-10T15:51:03.075Z,28.40
2019-06-10T15:53:32.991Z,28.50
2019-06-10T15:56:27.027Z,28.40
2019-06-10T15:58:32.223Z,28.20
2019-06-10T16:01:02.835Z,28.30
2019-06-10T16:03:33.131Z,28.50
2019-06-10T16:06:03.071Z,28.70
2019-06-10T16:08:32.459Z,29.00
2019-06-10T16:11:03.065Z,29.30
2019-06-10T16:13:32.260Z,29.40
2019-06-10T16:16:03.400Z,29.80
2019-06-10T16:18:32.964Z,30.20
2019-06-10T16:21:04.329Z,30.60
2019-06-10T16:23:33.896Z,30.80
2019-06-10T16:26:02.764Z,31.00
2019-06-10T16:28:32.827Z,31.30
2019-06-10T16:31:02.806Z,31.40
2019-06-10T16:33:33.572Z,31.50
2019-06-10T16:36:02.952Z,31.50
2019-06-10T16:38:32.837Z,31.90
2019-06-10T16:41:03.483Z,32.20
2019-06-10T16:43:33.411Z,32.40
2019-06-10T16:46:03.349Z,32.40
2019-06-10T16:48:33.332Z,32.80
2019-06-10T16:51:03.213Z,32.90
2019-06-10T16:53:35.301Z,33.00
2019-06-10T16:56:03.358Z,33.10
2019-06-10T16:58:33.477Z,33.60
2019-06-10T17:01:04.342Z,33.50
2019-06-10T17:03:33.836Z,33.60
2019-06-10T17:06:02.979Z,33.80
2019-06-10T17:08:33.459Z,33.60
2019-06-10T17:11:03.300Z,33.90
2019-06-10T17:13:32.184Z,34.00
2019-06-10T17:16:03.400Z,33.90
2019-06-10T17:18:33.647Z,33.60
2019-06-10T17:21:03.450Z,33.70
2019-06-10T17:23:36.365Z,33.70
2019-06-10T17:26:02.556Z,34.30
2019-06-10T17:28:36.334Z,34.60
2019-06-10T17:31:03.770Z,34.30
2019-06-10T17:33:35.486Z,35.40
2019-06-10T17:36:03.367Z,39.00
2019-06-10T17:38:32.369Z,39.90
2019-06-10T17:41:02.988Z,40.60
2019-06-10T17:43:34.053Z,41.30
2019-06-10T17:46:03.341Z,40.70
2019-06-10T17:48:33.674Z,41.10
2019-06-10T17:51:02.662Z,41.40
2019-06-10T17:53:34.713Z,40.80
2019-06-10T17:56:03.310Z,40.80
2019-06-10T17:58:48.274Z,41.90
2019-06-10T18:01:02.668Z,42.50
2019-06-10T18:03:31.513Z,42.70
2019-06-10T18:06:02.612Z,43.20
2019-06-10T18:08:32.344Z,43.50
2019-06-10T18:11:03.048Z,43.90
2019-06-10T18:13:33.097Z,44.30
2019-06-10T18:16:02.730Z,44.60
2019-06-10T18:18:36.582Z,44.30
2019-06-10T18:21:03.462Z,43.90
2019-06-10T18:23:33.079Z,43.90
2019-06-10T18:26:03.233Z,44.10
2019-06-10T18:28:39.215Z,43.90
2019-06-10T18:31:02.648Z,44.30
2019-06-10T18:33:34.470Z,44.10
2019-06-10T18:36:01.844Z,44.60
2019-06-10T18:38:33.635Z,44.80
2019-06-10T18:41:03.207Z,45.40
2019-06-10T18:43:33.757Z,45.10
2019-06-10T18:46:03.419Z,45.60
2019-06-10T18:48:35.992Z,45.90
2019-06-10T18:51:02.486Z,45.60
2019-06-10T18:53:33.570Z,45.60
2019-06-10T18:56:01.500Z,45.80
2019-06-10T18:58:32.717Z,45.70
2019-06-10T19:01:05.140Z,45.60
2019-06-10T19:03:33.397Z,45.70
2019-06-10T19:06:01.087Z,46.20
2019-06-10T19:08:31.827Z,46.60
2019-06-10T19:11:02.249Z,47.00
2019-06-10T19:13:31.943Z,47.20
2019-06-10T19:16:02.439Z,47.30
2019-06-10T19:18:31.850Z,47.10
2019-06-10T19:21:03.579Z,47.20
2019-06-10T19:23:33.432Z,47.20
2019-06-10T19:26:04.211Z,47.10
2019-06-10T19:28:33.907Z,47.30
2019-06-10T19:31:03.200Z,47.00
2019-06-10T19:33:34.129Z,46.80
2019-06-10T19:36:02.324Z,47.10
2019-06-10T19:38:32.429Z,47.00
2019-06-10T19:41:02.753Z,47.50
2019-06-10T19:43:34.601Z,47.40
2019-06-10T19:46:04.399Z,47.20
2019-06-10T19:48:35.296Z,47.30
2019-06-10T19:51:03.075Z,47.20
2019-06-10T19:53:33.008Z,47.20
2019-06-10T19:56:02.578Z,47.10
2019-06-10T19:58:32.314Z,47.00
2019-06-10T20:01:01.162Z,47.00
2019-06-10T20:03:29.888Z,47.40
2019-06-10T21:03:29.540Z,47.10
2019-06-10T21:06:02.412Z,47.00
2019-06-10T21:08:33.181Z,47.10
2019-06-10T21:11:02.945Z,47.50
2019-06-10T21:13:32.885Z,47.70
2019-06-10T21:16:03.708Z,47.70
2019-06-10T21:18:32.894Z,47.60
2019-06-10T21:21:01.964Z,47.70
2019-06-10T21:23:30.534Z,48.10
2019-06-10T21:25:59.277Z,47.90
2019-06-10T21:28:27.830Z,48.30
2019-06-10T21:30:58.765Z,48.30
2019-06-10T21:33:26.666Z,48.10
2019-06-10T21:35:55.369Z,48.40
2019-06-10T21:38:24.178Z,48.10
2019-06-10T21:40:54.152Z,48.40
2019-06-10T21:43:22.901Z,49.60
2019-06-10T21:45:57.522Z,48.80
2019-06-10T21:48:22.985Z,48.70
2019-06-10T21:50:55.839Z,49.00
2019-06-10T21:53:22.418Z,48.90
2019-06-10T21:55:53.489Z,49.20
2019-06-10T21:58:22.534Z,49.00
2019-06-10T22:01:03.434Z,49.00
2019-06-10T22:03:23.388Z,49.30
2019-06-10T22:05:53.689Z,49.20
2019-06-10T22:08:22.548Z,49.30
2019-06-10T22:10:54.614Z,49.30
2019-06-10T22:13:22.384Z,49.70
2019-06-10T22:15:53.435Z,49.60
2019-06-10T22:18:22.937Z,49.60
2019-06-10T22:20:56.070Z,49.70
2019-06-10T22:23:23.210Z,49.60
2019-06-10T22:25:54.332Z,49.40
2019-06-10T22:28:22.591Z,49.10
2019-06-10T22:30:55.685Z,49.50
2019-06-10T22:33:22.626Z,49.30
2019-06-10T22:35:54.527Z,49.40
2019-06-10T22:38:22.201Z,49.40
2019-06-10T22:40:53.153Z,49.50
2019-06-10T22:43:23.371Z,49.80
2019-06-10T22:45:53.805Z,49.70
2019-06-10T22:48:22.539Z,49.60
2019-06-10T22:50:51.301Z,49.80
2019-06-10T22:53:22.952Z,49.70
2019-06-10T22:55:51.023Z,49.40
2019-06-10T22:58:23.643Z,49.20
2019-06-10T23:00:53.225Z,49.20
2019-06-10T23:03:21.981Z,49.40
2019-06-10T23:05:52.265Z,49.60
2019-06-10T23:08:22.835Z,49.60
2019-06-10T23:10:53.263Z,49.60
2019-06-10T23:13:23.175Z,49.90
2019-06-10T23:15:53.949Z,50.30
2019-06-10T23:18:22.462Z,50.40
2019-06-10T23:20:52.086Z,50.50
2019-06-10T23:23:23.317Z,50.60
2019-06-10T23:25:51.752Z,50.70
2019-06-10T23:28:22.212Z,51.00
2019-06-10T23:30:53.576Z,50.90
2019-06-10T23:33:22.956Z,51.20
2019-06-10T23:35:52.513Z,51.30
2019-06-10T23:38:23.587Z,51.60
2019-06-10T23:40:52.805Z,51.70
2019-06-10T23:43:22.477Z,51.70
2019-06-10T23:45:51.429Z,51.50
2019-06-10T23:48:22.580Z,51.60
2019-06-10T23:50:54.005Z,51.50
2019-06-10T23:53:23.027Z,51.40
2019-06-10T23:55:51.811Z,51.60
2019-06-10T23:58:22.737Z,51.60
